• Join FlightAware (Why Join?)
  • Login
  • US Flag 
05:35AM EST


 

Airport Tracker/Info


-or-


 

Live Flight TrackerFlight Track Log ✈ N102WY ✈ 09-Sep-2013 ✈ KCYS - KLAR

Flight Track Log - Related Links

Times and Time Zones

All times are in EDT time to prevent confusion due to time zone crossing. See the N102WY flight status page for this flight to view local times or setup timezone preferences in your user account.

Time Position Orientation Groundspeed Altitude Reporting Facility
EDT Latitude Longitude Course Direction KTS MPH feet Rate Location/Type
04:14PM 41.1575 -104.8467 270° West 200 230 7,600  Level Denver Center
04:15PM 41.1697 -104.9486 279° West 247 284 10,300 2,640 Climbing Denver Center
04:16PM 41.1986 -105.0458 292° West 284 327 13,100 1,740 Climbing Denver Center
04:17PM 41.2517 -105.1350 308° West 279 321 14,000 240 Climbing Denver Center
04:18PM 41.3028 -105.2208 308° West 300 345 13,600 -780 Descending Denver Center
04:19PM 41.2550 -105.3549 270° West  Level Estimated
04:19PM 41.3067 -105.3231 273° West 269 310 12,400  Level Denver Center
04:20PM 41.3025 -105.4058 266° West 253 291 12,000 -240 Descending Denver Center
04:21PM 41.3433 -105.4956 301° West 288 331 12,000  Level Denver Center
04:22PM 41.3939 -105.6008 303° West 298 343 12,000  Level Denver Center
04:23PM 41.4342 -105.6853 302° West 292 336 12,000  Level Denver Center
04:24PM 41.4761 -105.7731 303° West 275 316 12,000 -60 Level Denver Center
04:25PM 41.4819 -105.8394 277° West 235 270 11,900 -660 Descending Denver Center
04:26PM 41.4661 -105.9303 257° West 237 273 10,700 -1,020 Descending Denver Center
04:27PM 41.5042 -106.0006 306° West 231 266 9,800 -480 Descending Denver Center
04:28PM 41.5583 -105.9883 10° North 230 265 9,800  Level Denver Center
04:29PM 41.4558 -105.8981 147° Southeast 238 274 9,800 -300 Level Denver Center
04:31PM 41.4106 -105.8264 130° Southeast 236 272 9,300 -360 Descending Denver Center
04:32PM 41.3850 -105.7706 121° Southeast 229 264 9,100 -240 Descending Denver Center
04:34PM 41.3121 -105.6750 180° South  Level Estimated
04:41PM 41.3121 -105.6750 180° South  Level Estimated
04:42PM 41.3121 -105.6750 180° South  Level Estimated